sensor_id;sensor_type;location;lat;lon;timestamp;temperature;humidity
25436;DHT22;13363;52.772;-3.890;2023-02-23T00:00:12;4.60;99.90
25436;DHT22;13363;52.772;-3.890;2023-02-23T00:02:57;4.60;99.90
25436;DHT22;13363;52.772;-3.890;2023-02-23T00:05:29;4.50;99.90
25436;DHT22;13363;52.772;-3.890;2023-02-23T00:07:55;4.50;99.90
25436;DHT22;13363;52.772;-3.890;2023-02-23T00:10:22;4.50;99.90
25436;DHT22;13363;52.772;-3.890;2023-02-23T00:12:58;4.40;99.90
25436;DHT22;13363;52.772;-3.890;2023-02-23T00:15:27;4.50;99.90
25436;DHT22;13363;52.772;-3.890;2023-02-23T00:17:55;4.50;99.90
25436;DHT22;13363;52.772;-3.890;2023-02-23T00:20:23;4.50;99.90
25436;DHT22;13363;52.772;-3.890;2023-02-23T00:22:56;4.50;99.90
25436;DHT22;13363;52.772;-3.890;2023-02-23T00:25:23;4.60;99.90
25436;DHT22;13363;52.772;-3.890;2023-02-23T00:27:50;4.60;99.90
25436;DHT22;13363;52.772;-3.890;2023-02-23T00:30:18;4.60;99.90
25436;DHT22;13363;52.772;-3.890;2023-02-23T00:32:44;4.60;99.90
25436;DHT22;13363;52.772;-3.890;2023-02-23T00:35:10;4.50;99.90
25436;DHT22;13363;52.772;-3.890;2023-02-23T00:37:46;4.50;99.90
25436;DHT22;13363;52.772;-3.890;2023-02-23T00:40:14;4.50;99.90
25436;DHT22;13363;52.772;-3.890;2023-02-23T00:42:42;4.50;99.90
25436;DHT22;13363;52.772;-3.890;2023-02-23T00:45:09;4.40;99.90
25436;DHT22;13363;52.772;-3.890;2023-02-23T00:47:36;4.40;99.90
25436;DHT22;13363;52.772;-3.890;2023-02-23T00:50:02;4.40;99.90
25436;DHT22;13363;52.772;-3.890;2023-02-23T00:52:29;4.50;99.90
25436;DHT22;13363;52.772;-3.890;2023-02-23T00:54:55;4.50;99.90
25436;DHT22;13363;52.772;-3.890;2023-02-23T00:57:22;4.50;99.90
25436;DHT22;13363;52.772;-3.890;2023-02-23T00:59:47;4.50;99.90
25436;DHT22;13363;52.772;-3.890;2023-02-23T01:02:13;4.60;99.90
25436;DHT22;13363;52.772;-3.890;2023-02-23T01:04:39;4.70;99.90
25436;DHT22;13363;52.772;-3.890;2023-02-23T01:07:05;4.70;99.90
25436;DHT22;13363;52.772;-3.890;2023-02-23T01:09:32;4.70;99.90
25436;DHT22;13363;52.772;-3.890;2023-02-23T01:11:58;4.80;99.90
25436;DHT22;13363;52.772;-3.890;2023-02-23T01:14:28;4.80;99.90
25436;DHT22;13363;52.772;-3.890;2023-02-23T01:16:54;4.80;99.90
25436;DHT22;13363;52.772;-3.890;2023-02-23T01:19:20;4.80;99.90
25436;DHT22;13363;52.772;-3.890;2023-02-23T01:21:46;4.80;99.90
25436;DHT22;13363;52.772;-3.890;2023-02-23T01:24:12;4.80;99.90
25436;DHT22;13363;52.772;-3.890;2023-02-23T01:26:41;4.80;99.90
25436;DHT22;13363;52.772;-3.890;2023-02-23T01:29:13;4.70;99.90
25436;DHT22;13363;52.772;-3.890;2023-02-23T01:31:41;4.60;99.90
25436;DHT22;13363;52.772;-3.890;2023-02-23T01:34:10;4.60;99.90
25436;DHT22;13363;52.772;-3.890;2023-02-23T01:36:37;4.50;99.90
25436;DHT22;13363;52.772;-3.890;2023-02-23T01:39:06;4.50;99.90
25436;DHT22;13363;52.772;-3.890;2023-02-23T01:41:34;4.50;99.90
25436;DHT22;13363;52.772;-3.890;2023-02-23T01:44:03;4.40;99.90
25436;DHT22;13363;52.772;-3.890;2023-02-23T01:46:40;4.40;99.90
25436;DHT22;13363;52.772;-3.890;2023-02-23T01:49:10;4.40;99.90
25436;DHT22;13363;52.772;-3.890;2023-02-23T01:51:44;4.30;99.90
25436;DHT22;13363;52.772;-3.890;2023-02-23T01:54:16;4.30;99.90
25436;DHT22;13363;52.772;-3.890;2023-02-23T01:56:45;4.40;99.90
25436;DHT22;13363;52.772;-3.890;2023-02-23T01:59:15;4.40;99.90
25436;DHT22;13363;52.772;-3.890;2023-02-23T02:01:42;4.30;99.90
25436;DHT22;13363;52.772;-3.890;2023-02-23T02:04:09;4.30;99.90
25436;DHT22;13363;52.772;-3.890;2023-02-23T02:06:43;4.30;99.90
25436;DHT22;13363;52.772;-3.890;2023-02-23T02:09:13;4.30;99.90
25436;DHT22;13363;52.772;-3.890;2023-02-23T02:11:43;4.20;99.90
25436;DHT22;13363;52.772;-3.890;2023-02-23T02:14:21;4.40;99.90
25436;DHT22;13363;52.772;-3.890;2023-02-23T02:16:56;4.30;99.90
25436;DHT22;13363;52.772;-3.890;2023-02-23T02:35:44;4.40;99.90
25436;DHT22;13363;52.772;-3.890;2023-02-23T02:38:33;4.50;99.90
25436;DHT22;13363;52.772;-3.890;2023-02-23T02:43:45;4.40;99.90
25436;DHT22;13363;52.772;-3.890;2023-02-23T02:46:48;4.50;99.90
25436;DHT22;13363;52.772;-3.890;2023-02-23T02:49:31;4.70;99.90
25436;DHT22;13363;52.772;-3.890;2023-02-23T02:52:07;4.70;99.90
25436;DHT22;13363;52.772;-3.890;2023-02-23T02:54:47;4.80;99.90
25436;DHT22;13363;52.772;-3.890;2023-02-23T02:57:14;4.80;99.90
25436;DHT22;13363;52.772;-3.890;2023-02-23T02:59:45;4.70;99.90
25436;DHT22;13363;52.772;-3.890;2023-02-23T03:02:35;4.80;99.90
25436;DHT22;13363;52.772;-3.890;2023-02-23T03:05:24;4.80;99.90
25436;DHT22;13363;52.772;-3.890;2023-02-23T03:11:13;4.90;99.90
25436;DHT22;13363;52.772;-3.890;2023-02-23T03:14:16;5.00;99.90
25436;DHT22;13363;52.772;-3.890;2023-02-23T03:21:02;5.40;99.90
25436;DHT22;13363;52.772;-3.890;2023-02-23T03:26:48;5.50;99.90
25436;DHT22;13363;52.772;-3.890;2023-02-23T03:29:52;5.50;99.90
25436;DHT22;13363;52.772;-3.890;2023-02-23T03:32:59;5.50;99.90
25436;DHT22;13363;52.772;-3.890;2023-02-23T03:36:11;5.60;99.90
25436;DHT22;13363;52.772;-3.890;2023-02-23T03:42:05;5.80;99.90
25436;DHT22;13363;52.772;-3.890;2023-02-23T03:44:54;5.90;99.90
25436;DHT22;13363;52.772;-3.890;2023-02-23T03:47:40;6.00;99.90
25436;DHT22;13363;52.772;-3.890;2023-02-23T03:50:42;5.90;99.90
25436;DHT22;13363;52.772;-3.890;2023-02-23T03:53:43;6.10;99.90
25436;DHT22;13363;52.772;-3.890;2023-02-23T03:56:32;6.00;99.90
25436;DHT22;13363;52.772;-3.890;2023-02-23T03:59:22;6.30;99.90
25436;DHT22;13363;52.772;-3.890;2023-02-23T04:02:08;6.30;99.90
25436;DHT22;13363;52.772;-3.890;2023-02-23T04:04:55;6.30;99.90
25436;DHT22;13363;52.772;-3.890;2023-02-23T04:07:45;6.30;99.90
25436;DHT22;13363;52.772;-3.890;2023-02-23T04:10:32;6.30;99.90
25436;DHT22;13363;52.772;-3.890;2023-02-23T04:13:20;6.30;99.90
25436;DHT22;13363;52.772;-3.890;2023-02-23T04:15:53;6.40;99.90
25436;DHT22;13363;52.772;-3.890;2023-02-23T04:18:23;6.50;99.90
25436;DHT22;13363;52.772;-3.890;2023-02-23T04:20:50;6.50;99.90
25436;DHT22;13363;52.772;-3.890;2023-02-23T04:23:16;6.50;99.90
25436;DHT22;13363;52.772;-3.890;2023-02-23T04:25:43;6.50;99.90
25436;DHT22;13363;52.772;-3.890;2023-02-23T04:28:09;6.50;99.90
25436;DHT22;13363;52.772;-3.890;2023-02-23T04:30:35;6.50;99.90
25436;DHT22;13363;52.772;-3.890;2023-02-23T04:33:01;7.90;99.90
25436;DHT22;13363;52.772;-3.890;2023-02-23T04:35:27;6.60;99.90
25436;DHT22;13363;52.772;-3.890;2023-02-23T04:37:54;6.60;99.90
25436;DHT22;13363;52.772;-3.890;2023-02-23T04:40:20;6.60;99.90
25436;DHT22;13363;52.772;-3.890;2023-02-23T04:42:46;6.60;99.90
25436;DHT22;13363;52.772;-3.890;2023-02-23T04:45:12;6.60;99.90
25436;DHT22;13363;52.772;-3.890;2023-02-23T04:47:38;6.50;99.90
25436;DHT22;13363;52.772;-3.890;2023-02-23T04:50:04;6.40;99.90
25436;DHT22;13363;52.772;-3.890;2023-02-23T04:52:30;6.40;99.90
25436;DHT22;13363;52.772;-3.890;2023-02-23T04:54:56;6.40;99.90
25436;DHT22;13363;52.772;-3.890;2023-02-23T04:57:25;6.40;99.90
25436;DHT22;13363;52.772;-3.890;2023-02-23T04:59:52;6.40;99.90
25436;DHT22;13363;52.772;-3.890;2023-02-23T05:02:17;6.40;99.90
25436;DHT22;13363;52.772;-3.890;2023-02-23T05:04:43;6.50;99.90
25436;DHT22;13363;52.772;-3.890;2023-02-23T05:07:09;6.60;99.90
25436;DHT22;13363;52.772;-3.890;2023-02-23T05:09:35;6.60;99.90
25436;DHT22;13363;52.772;-3.890;2023-02-23T05:12:01;6.60;99.90
25436;DHT22;13363;52.772;-3.890;2023-02-23T05:14:27;6.70;99.90
25436;DHT22;13363;52.772;-3.890;2023-02-23T05:16:53;6.70;99.90
25436;DHT22;13363;52.772;-3.890;2023-02-23T05:19:19;6.70;99.90
25436;DHT22;13363;52.772;-3.890;2023-02-23T05:21:44;6.60;99.90
25436;DHT22;13363;52.772;-3.890;2023-02-23T05:24:10;6.50;99.90
25436;DHT22;13363;52.772;-3.890;2023-02-23T05:26:36;6.50;99.90
25436;DHT22;13363;52.772;-3.890;2023-02-23T05:29:02;6.50;99.90
25436;DHT22;13363;52.772;-3.890;2023-02-23T05:31:28;6.40;99.90
25436;DHT22;13363;52.772;-3.890;2023-02-23T05:33:54;6.30;99.90
25436;DHT22;13363;52.772;-3.890;2023-02-23T05:36:20;6.30;99.90
25436;DHT22;13363;52.772;-3.890;2023-02-23T05:38:46;6.30;99.90
25436;DHT22;13363;52.772;-3.890;2023-02-23T05:41:15;6.30;99.90
25436;DHT22;13363;52.772;-3.890;2023-02-23T05:43:42;6.20;99.90
25436;DHT22;13363;52.772;-3.890;2023-02-23T05:46:16;6.10;99.90
25436;DHT22;13363;52.772;-3.890;2023-02-23T05:48:43;6.10;99.90
25436;DHT22;13363;52.772;-3.890;2023-02-23T05:51:12;6.20;99.90
25436;DHT22;13363;52.772;-3.890;2023-02-23T05:53:38;6.10;99.90
25436;DHT22;13363;52.772;-3.890;2023-02-23T05:56:06;6.10;99.90
25436;DHT22;13363;52.772;-3.890;2023-02-23T05:58:32;6.10;99.90
25436;DHT22;13363;52.772;-3.890;2023-02-23T06:00:59;6.10;99.90
25436;DHT22;13363;52.772;-3.890;2023-02-23T06:03:25;6.10;99.90
25436;DHT22;13363;52.772;-3.890;2023-02-23T06:05:55;6.00;99.90
25436;DHT22;13363;52.772;-3.890;2023-02-23T06:08:22;5.90;99.90
25436;DHT22;13363;52.772;-3.890;2023-02-23T06:10:49;5.80;99.90
25436;DHT22;13363;52.772;-3.890;2023-02-23T06:13:16;5.80;99.90
25436;DHT22;13363;52.772;-3.890;2023-02-23T06:15:42;5.70;99.90
25436;DHT22;13363;52.772;-3.890;2023-02-23T06:18:08;5.60;99.90
25436;DHT22;13363;52.772;-3.890;2023-02-23T06:20:34;5.50;99.90
25436;DHT22;13363;52.772;-3.890;2023-02-23T06:23:00;5.50;99.90
25436;DHT22;13363;52.772;-3.890;2023-02-23T06:25:26;5.60;99.90
25436;DHT22;13363;52.772;-3.890;2023-02-23T06:27:52;5.60;99.90
25436;DHT22;13363;52.772;-3.890;2023-02-23T06:30:19;5.50;99.90
25436;DHT22;13363;52.772;-3.890;2023-02-23T06:32:45;5.50;99.90
25436;DHT22;13363;52.772;-3.890;2023-02-23T06:35:12;5.70;99.90
25436;DHT22;13363;52.772;-3.890;2023-02-23T06:37:38;5.50;99.90
25436;DHT22;13363;52.772;-3.890;2023-02-23T06:40:04;5.40;99.90
25436;DHT22;13363;52.772;-3.890;2023-02-23T06:42:30;5.30;99.90
25436;DHT22;13363;52.772;-3.890;2023-02-23T06:44:56;5.30;99.90
25436;DHT22;13363;52.772;-3.890;2023-02-23T06:47:22;5.30;99.90
25436;DHT22;13363;52.772;-3.890;2023-02-23T06:49:48;5.30;99.90
25436;DHT22;13363;52.772;-3.890;2023-02-23T06:52:14;5.40;99.90
25436;DHT22;13363;52.772;-3.890;2023-02-23T06:54:40;5.30;99.90
25436;DHT22;13363;52.772;-3.890;2023-02-23T06:57:07;5.30;99.90
25436;DHT22;13363;52.772;-3.890;2023-02-23T06:59:33;5.30;99.90
25436;DHT22;13363;52.772;-3.890;2023-02-23T07:02:01;5.30;99.90
25436;DHT22;13363;52.772;-3.890;2023-02-23T07:04:29;5.30;99.90
25436;DHT22;13363;52.772;-3.890;2023-02-23T07:06:55;5.20;99.90
25436;DHT22;13363;52.772;-3.890;2023-02-23T07:09:21;5.20;99.90
25436;DHT22;13363;52.772;-3.890;2023-02-23T07:11:46;5.20;99.90
25436;DHT22;13363;52.772;-3.890;2023-02-23T07:14:12;5.10;99.90
25436;DHT22;13363;52.772;-3.890;2023-02-23T07:16:38;5.10;99.90
25436;DHT22;13363;52.772;-3.890;2023-02-23T07:19:05;5.10;99.90
25436;DHT22;13363;52.772;-3.890;2023-02-23T07:21:32;5.00;99.90
25436;DHT22;13363;52.772;-3.890;2023-02-23T07:23:59;5.00;99.90
25436;DHT22;13363;52.772;-3.890;2023-02-23T07:26:25;5.10;99.90
25436;DHT22;13363;52.772;-3.890;2023-02-23T07:28:51;5.10;99.90
25436;DHT22;13363;52.772;-3.890;2023-02-23T07:31:17;5.10;99.90
25436;DHT22;13363;52.772;-3.890;2023-02-23T07:33:44;5.20;99.90
25436;DHT22;13363;52.772;-3.890;2023-02-23T07:36:10;5.20;99.90
25436;DHT22;13363;52.772;-3.890;2023-02-23T07:38:36;5.50;99.90
25436;DHT22;13363;52.772;-3.890;2023-02-23T07:41:03;5.50;99.90
25436;DHT22;13363;52.772;-3.890;2023-02-23T07:43:29;5.70;99.90
25436;DHT22;13363;52.772;-3.890;2023-02-23T07:45:58;5.70;99.90
25436;DHT22;13363;52.772;-3.890;2023-02-23T07:48:25;5.60;99.90
25436;DHT22;13363;52.772;-3.890;2023-02-23T07:50:51;5.60;99.90
25436;DHT22;13363;52.772;-3.890;2023-02-23T07:53:17;5.60;99.90
25436;DHT22;13363;52.772;-3.890;2023-02-23T07:55:43;5.60;99.90
25436;DHT22;13363;52.772;-3.890;2023-02-23T07:58:09;5.60;99.90
25436;DHT22;13363;52.772;-3.890;2023-02-23T08:00:35;5.60;99.90
25436;DHT22;13363;52.772;-3.890;2023-02-23T08:03:03;5.60;99.90
25436;DHT22;13363;52.772;-3.890;2023-02-23T08:05:29;5.50;99.90
25436;DHT22;13363;52.772;-3.890;2023-02-23T08:07:56;5.50;99.90
25436;DHT22;13363;52.772;-3.890;2023-02-23T08:10:22;5.60;99.90
25436;DHT22;13363;52.772;-3.890;2023-02-23T08:12:48;5.70;99.90
25436;DHT22;13363;52.772;-3.890;2023-02-23T08:15:14;5.70;99.90
25436;DHT22;13363;52.772;-3.890;2023-02-23T08:17:40;5.80;99.90
25436;DHT22;13363;52.772;-3.890;2023-02-23T08:20:08;6.00;99.90
25436;DHT22;13363;52.772;-3.890;2023-02-23T08:22:35;6.00;99.90
25436;DHT22;13363;52.772;-3.890;2023-02-23T08:25:00;6.00;99.90
25436;DHT22;13363;52.772;-3.890;2023-02-23T08:27:27;6.10;99.90
25436;DHT22;13363;52.772;-3.890;2023-02-23T08:29:56;6.20;99.90
25436;DHT22;13363;52.772;-3.890;2023-02-23T08:32:22;6.20;99.90
25436;DHT22;13363;52.772;-3.890;2023-02-23T08:34:48;6.30;99.90
25436;DHT22;13363;52.772;-3.890;2023-02-23T08:37:14;6.40;99.90
25436;DHT22;13363;52.772;-3.890;2023-02-23T08:39:39;6.50;99.90
25436;DHT22;13363;52.772;-3.890;2023-02-23T08:42:05;6.50;99.90
25436;DHT22;13363;52.772;-3.890;2023-02-23T08:44:31;6.50;99.90
25436;DHT22;13363;52.772;-3.890;2023-02-23T08:46:57;6.60;99.90
25436;DHT22;13363;52.772;-3.890;2023-02-23T08:49:24;6.70;99.90
25436;DHT22;13363;52.772;-3.890;2023-02-23T08:51:50;6.80;99.90
25436;DHT22;13363;52.772;-3.890;2023-02-23T08:54:16;6.80;99.90
25436;DHT22;13363;52.772;-3.890;2023-02-23T08:56:44;6.80;99.90
25436;DHT22;13363;52.772;-3.890;2023-02-23T08:59:14;6.80;99.90
25436;DHT22;13363;52.772;-3.890;2023-02-23T09:01:40;6.90;99.90
25436;DHT22;13363;52.772;-3.890;2023-02-23T09:04:07;7.00;99.90
25436;DHT22;13363;52.772;-3.890;2023-02-23T09:06:33;7.00;99.90
25436;DHT22;13363;52.772;-3.890;2023-02-23T09:09:00;7.00;99.90
25436;DHT22;13363;52.772;-3.890;2023-02-23T09:11:27;7.10;99.90
25436;DHT22;13363;52.772;-3.890;2023-02-23T09:13:53;7.20;99.90
25436;DHT22;13363;52.772;-3.890;2023-02-23T09:16:19;7.30;99.90
25436;DHT22;13363;52.772;-3.890;2023-02-23T09:18:45;7.60;99.90
25436;DHT22;13363;52.772;-3.890;2023-02-23T09:21:17;8.10;99.90
25436;DHT22;13363;52.772;-3.890;2023-02-23T09:23:46;9.40;99.90
25436;DHT22;13363;52.772;-3.890;2023-02-23T09:26:15;10.70;99.90
25436;DHT22;13363;52.772;-3.890;2023-02-23T09:28:43;11.60;99.90
25436;DHT22;13363;52.772;-3.890;2023-02-23T09:31:12;12.70;99.90
25436;DHT22;13363;52.772;-3.890;2023-02-23T09:33:39;13.50;99.90
25436;DHT22;13363;52.772;-3.890;2023-02-23T09:36:17;14.30;99.90
25436;DHT22;13363;52.772;-3.890;2023-02-23T09:38:45;14.40;99.90
25436;DHT22;13363;52.772;-3.890;2023-02-23T09:44:09;13.80;99.90
25436;DHT22;13363;52.772;-3.890;2023-02-23T09:46:46;13.40;99.90
25436;DHT22;13363;52.772;-3.890;2023-02-23T09:49:17;13.80;99.90
25436;DHT22;13363;52.772;-3.890;2023-02-23T09:51:48;13.40;99.90
25436;DHT22;13363;52.772;-3.890;2023-02-23T09:54:25;13.10;99.90
25436;DHT22;13363;52.772;-3.890;2023-02-23T09:56:53;12.70;99.90
25436;DHT22;13363;52.772;-3.890;2023-02-23T09:59:23;11.90;99.90
25436;DHT22;13363;52.772;-3.890;2023-02-23T10:04:26;10.60;99.90
25436;DHT22;13363;52.772;-3.890;2023-02-23T10:09:46;9.90;99.90
25436;DHT22;13363;52.772;-3.890;2023-02-23T10:12:40;9.80;99.90
25436;DHT22;13363;52.772;-3.890;2023-02-23T10:15:18;9.90;99.90
25436;DHT22;13363;52.772;-3.890;2023-02-23T10:20:49;10.10;99.90
25436;DHT22;13363;52.772;-3.890;2023-02-23T10:23:42;9.90;99.90
25436;DHT22;13363;52.772;-3.890;2023-02-23T10:26:18;9.60;99.90
25436;DHT22;13363;52.772;-3.890;2023-02-23T10:28:46;9.30;99.90
25436;DHT22;13363;52.772;-3.890;2023-02-23T10:33:47;9.10;99.90
25436;DHT22;13363;52.772;-3.890;2023-02-23T10:36:26;9.20;99.90
25436;DHT22;13363;52.772;-3.890;2023-02-23T10:38:53;9.20;99.90
25436;DHT22;13363;52.772;-3.890;2023-02-23T10:41:19;9.20;99.90
25436;DHT22;13363;52.772;-3.890;2023-02-23T10:43:46;9.40;99.90
25436;DHT22;13363;52.772;-3.890;2023-02-23T10:46:20;9.40;99.90
25436;DHT22;13363;52.772;-3.890;2023-02-23T10:48:48;9.50;99.90
25436;DHT22;13363;52.772;-3.890;2023-02-23T10:51:24;9.60;99.90
25436;DHT22;13363;52.772;-3.890;2023-02-23T10:53:52;9.40;99.90
25436;DHT22;13363;52.772;-3.890;2023-02-23T10:56:18;9.50;99.90
25436;DHT22;13363;52.772;-3.890;2023-02-23T10:58:51;9.70;99.90
25436;DHT22;13363;52.772;-3.890;2023-02-23T11:01:38;9.80;99.90
25436;DHT22;13363;52.772;-3.890;2023-02-23T11:04:17;10.30;99.90
25436;DHT22;13363;52.772;-3.890;2023-02-23T11:06:45;11.40;99.90
25436;DHT22;13363;52.772;-3.890;2023-02-23T11:09:28;12.30;99.90
25436;DHT22;13363;52.772;-3.890;2023-02-23T11:12:16;12.70;99.90
25436;DHT22;13363;52.772;-3.890;2023-02-23T11:14:51;12.30;99.90
25436;DHT22;13363;52.772;-3.890;2023-02-23T11:17:39;11.70;99.90
25436;DHT22;13363;52.772;-3.890;2023-02-23T11:20:41;10.90;99.90
25436;DHT22;13363;52.772;-3.890;2023-02-23T11:23:33;10.50;99.90
25436;DHT22;13363;52.772;-3.890;2023-02-23T11:26:02;10.10;99.90
25436;DHT22;13363;52.772;-3.890;2023-02-23T11:28:39;10.50;99.90
25436;DHT22;13363;52.772;-3.890;2023-02-23T11:31:20;11.00;99.90
25436;DHT22;13363;52.772;-3.890;2023-02-23T11:33:53;11.20;99.90
25436;DHT22;13363;52.772;-3.890;2023-02-23T11:36:27;11.60;99.90
25436;DHT22;13363;52.772;-3.890;2023-02-23T11:39:21;12.10;99.90
25436;DHT22;13363;52.772;-3.890;2023-02-23T11:42:19;12.50;99.90
25436;DHT22;13363;52.772;-3.890;2023-02-23T11:45:10;12.60;99.90
25436;DHT22;13363;52.772;-3.890;2023-02-23T11:47:44;13.00;99.90
25436;DHT22;13363;52.772;-3.890;2023-02-23T11:50:25;13.20;99.90
25436;DHT22;13363;52.772;-3.890;2023-02-23T11:55:36;12.80;99.90
25436;DHT22;13363;52.772;-3.890;2023-02-23T11:58:18;12.90;99.90
25436;DHT22;13363;52.772;-3.890;2023-02-23T12:00:58;12.50;99.90
25436;DHT22;13363;52.772;-3.890;2023-02-23T12:03:26;11.90;99.90
25436;DHT22;13363;52.772;-3.890;2023-02-23T12:05:54;11.20;99.90
25436;DHT22;13363;52.772;-3.890;2023-02-23T12:11:04;10.90;99.90
25436;DHT22;13363;52.772;-3.890;2023-02-23T12:13:39;10.90;99.90
25436;DHT22;13363;52.772;-3.890;2023-02-23T12:24:02;12.00;99.90
25436;DHT22;13363;52.772;-3.890;2023-02-23T12:26:30;12.30;99.90
25436;DHT22;13363;52.772;-3.890;2023-02-23T12:29:09;12.40;99.90
25436;DHT22;13363;52.772;-3.890;2023-02-23T12:31:56;12.30;99.90
25436;DHT22;13363;52.772;-3.890;2023-02-23T12:34:43;12.00;99.90
25436;DHT22;13363;52.772;-3.890;2023-02-23T12:40:04;12.20;99.90
25436;DHT22;13363;52.772;-3.890;2023-02-23T12:42:59;12.50;99.90
25436;DHT22;13363;52.772;-3.890;2023-02-23T12:45:55;12.40;99.90
25436;DHT22;13363;52.772;-3.890;2023-02-23T12:51:51;12.60;99.90
25436;DHT22;13363;52.772;-3.890;2023-02-23T12:54:19;12.60;99.90
25436;DHT22;13363;52.772;-3.890;2023-02-23T12:57:06;12.80;99.90
25436;DHT22;13363;52.772;-3.890;2023-02-23T13:05:30;11.80;99.90
25436;DHT22;13363;52.772;-3.890;2023-02-23T13:11:19;11.50;99.90
25436;DHT22;13363;52.772;-3.890;2023-02-23T13:14:04;11.40;99.90
25436;DHT22;13363;52.772;-3.890;2023-02-23T13:17:07;11.40;99.90
25436;DHT22;13363;52.772;-3.890;2023-02-23T13:19:50;11.50;99.90
25436;DHT22;13363;52.772;-3.890;2023-02-23T13:25:02;11.70;99.90
25436;DHT22;13363;52.772;-3.890;2023-02-23T13:27:38;12.00;99.90
25436;DHT22;13363;52.772;-3.890;2023-02-23T13:30:10;12.10;99.90
25436;DHT22;13363;52.772;-3.890;2023-02-23T13:32:37;12.10;99.90
25436;DHT22;13363;52.772;-3.890;2023-02-23T13:35:21;12.20;99.90
25436;DHT22;13363;52.772;-3.890;2023-02-23T13:38:22;11.70;99.90
25436;DHT22;13363;52.772;-3.890;2023-02-23T13:41:19;11.50;99.90
25436;DHT22;13363;52.772;-3.890;2023-02-23T13:44:00;11.50;99.90
25436;DHT22;13363;52.772;-3.890;2023-02-23T13:47:12;11.40;99.90
25436;DHT22;13363;52.772;-3.890;2023-02-23T13:50:06;11.50;99.90
25436;DHT22;13363;52.772;-3.890;2023-02-23T13:52:42;11.40;99.90
25436;DHT22;13363;52.772;-3.890;2023-02-23T13:58:04;11.70;99.90
25436;DHT22;13363;52.772;-3.890;2023-02-23T14:00:31;11.70;99.90
25436;DHT22;13363;52.772;-3.890;2023-02-23T14:03:05;11.60;99.90
25436;DHT22;13363;52.772;-3.890;2023-02-23T14:05:41;11.40;99.90
25436;DHT22;13363;52.772;-3.890;2023-02-23T14:08:27;11.50;99.90
25436;DHT22;13363;52.772;-3.890;2023-02-23T14:10:56;11.50;99.90
25436;DHT22;13363;52.772;-3.890;2023-02-23T14:13:32;11.60;99.90
25436;DHT22;13363;52.772;-3.890;2023-02-23T14:16:19;11.40;99.90
25436;DHT22;13363;52.772;-3.890;2023-02-23T14:19:09;11.30;99.90
25436;DHT22;13363;52.772;-3.890;2023-02-23T14:30:05;11.40;99.90
25436;DHT22;13363;52.772;-3.890;2023-02-23T14:37:41;11.30;99.90
25436;DHT22;13363;52.772;-3.890;2023-02-23T14:40:15;11.20;99.90
25436;DHT22;13363;52.772;-3.890;2023-02-23T14:42:46;10.90;99.90
25436;DHT22;13363;52.772;-3.890;2023-02-23T14:45:25;11.00;99.90
25436;DHT22;13363;52.772;-3.890;2023-02-23T14:47:56;10.90;99.90
25436;DHT22;13363;52.772;-3.890;2023-02-23T14:50:33;10.90;99.90
25436;DHT22;13363;52.772;-3.890;2023-02-23T14:52:59;10.70;99.90
25436;DHT22;13363;52.772;-3.890;2023-02-23T14:55:30;10.80;99.90
25436;DHT22;13363;52.772;-3.890;2023-02-23T14:57:57;11.00;99.90
25436;DHT22;13363;52.772;-3.890;2023-02-23T15:02:55;10.80;99.90
25436;DHT22;13363;52.772;-3.890;2023-02-23T15:05:35;10.70;99.90
25436;DHT22;13363;52.772;-3.890;2023-02-23T15:08:08;10.70;99.90
25436;DHT22;13363;52.772;-3.890;2023-02-23T15:10:40;10.70;99.90
25436;DHT22;13363;52.772;-3.890;2023-02-23T15:13:09;10.70;99.90
25436;DHT22;13363;52.772;-3.890;2023-02-23T15:15:35;10.50;99.90
25436;DHT22;13363;52.772;-3.890;2023-02-23T15:18:09;10.40;99.90
25436;DHT22;13363;52.772;-3.890;2023-02-23T15:20:40;10.40;99.90
25436;DHT22;13363;52.772;-3.890;2023-02-23T15:23:11;10.40;99.90
25436;DHT22;13363;52.772;-3.890;2023-02-23T15:25:39;10.40;99.90
25436;DHT22;13363;52.772;-3.890;2023-02-23T15:28:21;10.50;99.90
25436;DHT22;13363;52.772;-3.890;2023-02-23T15:30:51;10.40;99.90
25436;DHT22;13363;52.772;-3.890;2023-02-23T15:33:18;10.50;99.90
25436;DHT22;13363;52.772;-3.890;2023-02-23T15:36:16;10.50;99.90
25436;DHT22;13363;52.772;-3.890;2023-02-23T15:38:47;10.40;99.90
25436;DHT22;13363;52.772;-3.890;2023-02-23T15:41:25;10.30;99.90
25436;DHT22;13363;52.772;-3.890;2023-02-23T15:43:52;10.30;99.90
25436;DHT22;13363;52.772;-3.890;2023-02-23T15:46:25;10.30;99.90
25436;DHT22;13363;52.772;-3.890;2023-02-23T15:48:54;10.20;99.90
25436;DHT22;13363;52.772;-3.890;2023-02-23T15:51:31;10.20;99.90
25436;DHT22;13363;52.772;-3.890;2023-02-23T15:53:59;10.20;99.90
25436;DHT22;13363;52.772;-3.890;2023-02-23T15:56:32;10.00;99.90
25436;DHT22;13363;52.772;-3.890;2023-02-23T15:59:10;9.90;99.90
25436;DHT22;13363;52.772;-3.890;2023-02-23T16:01:42;9.90;99.90
25436;DHT22;13363;52.772;-3.890;2023-02-23T16:09:46;9.50;99.90
25436;DHT22;13363;52.772;-3.890;2023-02-23T16:12:22;9.40;99.90
25436;DHT22;13363;52.772;-3.890;2023-02-23T16:14:55;9.30;99.90
25436;DHT22;13363;52.772;-3.890;2023-02-23T16:17:39;9.20;99.90
25436;DHT22;13363;52.772;-3.890;2023-02-23T16:20:19;9.20;99.90
25436;DHT22;13363;52.772;-3.890;2023-02-23T16:22:46;9.20;99.90
25436;DHT22;13363;52.772;-3.890;2023-02-23T16:25:20;9.20;99.90
25436;DHT22;13363;52.772;-3.890;2023-02-23T16:28:15;9.10;99.90
25436;DHT22;13363;52.772;-3.890;2023-02-23T16:30:42;9.10;99.90
25436;DHT22;13363;52.772;-3.890;2023-02-23T16:33:26;9.10;99.90
25436;DHT22;13363;52.772;-3.890;2023-02-23T16:36:22;8.90;99.90
25436;DHT22;13363;52.772;-3.890;2023-02-23T16:38:57;8.90;99.90
25436;DHT22;13363;52.772;-3.890;2023-02-23T16:41:26;8.80;99.90
25436;DHT22;13363;52.772;-3.890;2023-02-23T16:43:53;8.80;99.90
25436;DHT22;13363;52.772;-3.890;2023-02-23T16:46:22;8.70;99.90
25436;DHT22;13363;52.772;-3.890;2023-02-23T16:48:49;8.60;99.90
25436;DHT22;13363;52.772;-3.890;2023-02-23T16:51:17;8.50;99.90
25436;DHT22;13363;52.772;-3.890;2023-02-23T16:53:44;8.40;99.90
25436;DHT22;13363;52.772;-3.890;2023-02-23T16:56:14;8.30;99.90
25436;DHT22;13363;52.772;-3.890;2023-02-23T16:58:46;8.30;99.90
25436;DHT22;13363;52.772;-3.890;2023-02-23T17:01:13;8.20;99.90
25436;DHT22;13363;52.772;-3.890;2023-02-23T17:03:40;8.10;99.90
25436;DHT22;13363;52.772;-3.890;2023-02-23T17:06:08;8.00;99.90
25436;DHT22;13363;52.772;-3.890;2023-02-23T17:08:34;8.00;99.90
25436;DHT22;13363;52.772;-3.890;2023-02-23T17:11:01;7.90;99.90
25436;DHT22;13363;52.772;-3.890;2023-02-23T17:13:29;7.80;99.90
25436;DHT22;13363;52.772;-3.890;2023-02-23T17:16:01;7.80;99.90
25436;DHT22;13363;52.772;-3.890;2023-02-23T17:18:35;7.70;99.90
25436;DHT22;13363;52.772;-3.890;2023-02-23T17:21:08;7.60;99.90
25436;DHT22;13363;52.772;-3.890;2023-02-23T17:23:38;7.60;99.90
25436;DHT22;13363;52.772;-3.890;2023-02-23T17:26:17;7.50;99.90
25436;DHT22;13363;52.772;-3.890;2023-02-23T17:28:43;7.40;99.90
25436;DHT22;13363;52.772;-3.890;2023-02-23T17:31:10;7.30;99.90
25436;DHT22;13363;52.772;-3.890;2023-02-23T17:33:38;7.20;99.90
25436;DHT22;13363;52.772;-3.890;2023-02-23T17:36:08;7.20;99.90
25436;DHT22;13363;52.772;-3.890;2023-02-23T17:38:34;7.10;99.90
25436;DHT22;13363;52.772;-3.890;2023-02-23T17:41:05;6.90;99.90